Dobrodošli na spletni strani vremenske postaje Senovo. Vse informacije so informativnega značaja, saj vremenska postaja ni del državne mreže meteoroloških postaj. AKTUALNIH OBVESTIL NI.


Sneg/Led Od: 23-02-2018 00:00 Do: 23:59 Opozorilo za: Sneg/Led Stopnja: Rumena info button

Pogled proti Armezu več informacij Pogled proti Armezu


Lisca več informacij Lisca


Radar strel več informacij blitzortung!


opozorilo za sneg/led več informacij rain snow radar


Obiščite še:

Template documentation
and downloads

And another site



Weather Underground, zgodovina - Tekstovno

Dnevni povzetek za Januar 14, 2018 Enote:  Obe    Angleško   Metrično
« Predhodni Dan
Naslednji Dan »
Dnevni Tedenski Mesečni Letni Po meri
  Višja: Nižja: Povprečje:
Temperatura: TemperatureC °F /  -17.8 °C -0.6 °F /  -18.1 °C 1.2 °F /  -17.1 °C
Točka rosišča: DewpointC °F /  -17.8 °C -3.3 °F /  -19.6 °C -1 °F /  -18.3 °C
Vlažnost: Humidity % 80 % 85 %
Hitrost vetra: WindSpeedKMH mph /  0 km/h - 5.3 mph /  8.5 km/h
Sunki vetra: WindSpeedGustKMH mph /  0 km/h - -
Veter:- - East
Zračni tlak: PressurehPa in /  0 hPa 1020.9 in /  34567.7 hPa -
Padavine: 0.3 in /  7.62 mm    
Historical Graphs
 
 
Tabelarni podarki za Januar 14, 2018
Čas Temperatura Točka rosišča Zračni tlak Veter Hitrost vetra Sunki vetra Vlažnost Intenziteta padavin (urna)
TemperatureC °F /  -17.8 °C DewpointC °F /  -17.8 °C PressurehPa in /  0 hPa Calm     Humidity % HourlyPrecipMM in /  0 mm
00:01 2.6 °F /  -16.3 °C 0.8 °F /  -17.3 °C 1022.9 in /  34635.4 hPa East 2.7 mph /  4.3 km/h 7.6 mph /  12.2 km/h 88 % 0.0 in /  0 mm
00:09 2.6 °F /  -16.3 °C 0.8 °F /  -17.3 °C 1022.9 in /  34635.4 hPa ENE 3.7 mph /  6 km/h 7.9 mph /  12.7 km/h 88 % 0.0 in /  0 mm
00:14 2.6 °F /  -16.3 °C 0.8 °F /  -17.3 °C 1022.9 in /  34635.4 hPa NE 3.4 mph /  5.5 km/h 7.9 mph /  12.7 km/h 88 % 0.0 in /  0 mm
00:24 2.5 °F /  -16.4 °C 0.7 °F /  -17.4 °C 1022.9 in /  34635.4 hPa ENE 5.5 mph /  8.9 km/h 10.1 mph /  16.3 km/h 88 % 0.0 in /  0 mm
00:29 2.5 °F /  -16.4 °C 0.7 °F /  -17.4 °C 1022.9 in /  34635.4 hPa ENE 5.1 mph /  8.2 km/h 10.1 mph /  16.3 km/h 88 % 0.0 in /  0 mm
00:38 2.5 °F /  -16.4 °C 0.7 °F /  -17.4 °C 1022.9 in /  34635.4 hPa East 5.5 mph /  8.9 km/h 11.9 mph /  19.2 km/h 88 % 0.0 in /  0 mm
00:47 2.5 °F /  -16.4 °C 0.7 °F /  -17.4 °C 1022.9 in /  34635.4 hPa East 6.6 mph /  10.6 km/h 10.8 mph /  17.4 km/h 88 % 0.0 in /  0 mm
00:52 2.5 °F /  -16.4 °C 0.7 °F /  -17.4 °C 1022.9 in /  34635.4 hPa ENE 5.5 mph /  8.9 km/h 10.8 mph /  17.4 km/h 88 % 0.0 in /  0 mm
01:00 2.4 °F /  -16.4 °C 0.6 °F /  -17.4 °C 1022.9 in /  34635.4 hPa ENE 6.0 mph /  9.7 km/h 10.1 mph /  16.3 km/h 88 % 0.0 in /  0 mm
01:06 2.4 °F /  -16.4 °C 0.6 °F /  -17.4 °C 1022.9 in /  34635.4 hPa ENE 5.5 mph /  8.9 km/h 10.1 mph /  16.3 km/h 88 % 0.0 in /  0 mm
01:13 2.4 °F /  -16.4 °C 0.6 °F /  -17.4 °C 1021.9 in /  34601.5 hPa East 5.0 mph /  8 km/h 10.1 mph /  16.3 km/h 88 % 0.0 in /  0 mm
01:18 2.4 °F /  -16.4 °C 0.6 °F /  -17.4 °C 1021.9 in /  34601.5 hPa East 5.8 mph /  9.3 km/h 10.1 mph /  16.3 km/h 88 % 0.0 in /  0 mm
01:30 2.4 °F /  -16.4 °C 0.6 °F /  -17.4 °C 1021.9 in /  34601.5 hPa ENE 3.7 mph /  6 km/h 7.9 mph /  12.7 km/h 88 % 0.0 in /  0 mm
01:31 2.4 °F /  -16.4 °C 0.6 °F /  -17.4 °C 1021.9 in /  34601.5 hPa ENE 3.4 mph /  5.5 km/h 7.9 mph /  12.7 km/h 88 % 0.0 in /  0 mm
01:37 2.4 °F /  -16.4 °C 0.6 °F /  -17.4 °C 1021.9 in /  34601.5 hPa East 3.4 mph /  5.5 km/h 5.8 mph /  9.3 km/h 88 % 0.0 in /  0 mm
01:58 2.4 °F /  -16.4 °C 0.6 °F /  -17.4 °C 1021.9 in /  34601.5 hPa ENE 5.3 mph /  8.5 km/h 10.8 mph /  17.4 km/h 88 % 0.0 in /  0 mm
02:03 2.4 °F /  -16.4 °C 0.6 °F /  -17.4 °C 1021.9 in /  34601.5 hPa ENE 6.4 mph /  10.3 km/h 10.8 mph /  17.4 km/h 88 % 0.0 in /  0 mm
02:09 2.4 °F /  -16.4 °C 0.6 °F /  -17.4 °C 1021.9 in /  34601.5 hPa ENE 6.3 mph /  10.1 km/h 10.5 mph /  16.9 km/h 88 % 0.0 in /  0 mm
02:16 2.3 °F /  -16.5 °C 0.5 °F /  -17.5 °C 1021.9 in /  34601.5 hPa East 4.3 mph /  6.9 km/h 7.6 mph /  12.2 km/h 88 % 0.0 in /  0 mm
02:23 2.3 °F /  -16.5 °C 0.5 °F /  -17.5 °C 1021.9 in /  34601.5 hPa SE 3.4 mph /  5.5 km/h 6.1 mph /  9.8 km/h 88 % 0.0 in /  0 mm
02:28 2.3 °F /  -16.5 °C 0.5 °F /  -17.5 °C 1021.9 in /  34601.5 hPa ESE 1.8 mph /  2.9 km/h 5.8 mph /  9.3 km/h 88 % 0.0 in /  0 mm
02:34 2.3 °F /  -16.5 °C 0.5 °F /  -17.5 °C 1021.9 in /  34601.5 hPa SE 1.6 mph /  2.6 km/h 5.8 mph /  9.3 km/h 88 % 0.0 in /  0 mm
02:44 2.3 °F /  -16.5 °C 0.5 °F /  -17.5 °C 1021.9 in /  34601.5 hPa SE 3.9 mph /  6.3 km/h 6.4 mph /  10.3 km/h 88 % 0.0 in /  0 mm
02:49 2.3 °F /  -16.5 °C 0.5 °F /  -17.5 °C 1021.9 in /  34601.5 hPa SE 3.4 mph /  5.5 km/h 6.1 mph /  9.8 km/h 88 % 0.0 in /  0 mm
02:56 2.3 °F /  -16.5 °C 0.5 °F /  -17.5 °C 1021.9 in /  34601.5 hPa SE 4.0 mph /  6.4 km/h 6.9 mph /  11.1 km/h 88 % 0.0 in /  0 mm
03:01 2.2 °F /  -16.6 °C 0.4 °F /  -17.6 °C 1021.9 in /  34601.5 hPa SE 4.5 mph /  7.2 km/h 6.9 mph /  11.1 km/h 88 % 0.0 in /  0 mm
03:13 2.2 °F /  -16.6 °C 0.4 °F /  -17.6 °C 1021.9 in /  34601.5 hPa SE 5.1 mph /  8.2 km/h 9.3 mph /  15 km/h 88 % 0.0 in /  0 mm
03:25 2.2 °F /  -16.6 °C 0.4 °F /  -17.6 °C 1021.9 in /  34601.5 hPa SE 5.0 mph /  8 km/h 9.0 mph /  14.5 km/h 88 % 0.0 in /  0 mm
03:33 2.2 °F /  -16.6 °C 0.4 °F /  -17.6 °C 1021.9 in /  34601.5 hPa ESE 4.0 mph /  6.4 km/h 10.5 mph /  16.9 km/h 88 % 0.0 in /  0 mm
03:40 2.2 °F /  -16.6 °C 0.4 °F /  -17.6 °C 1021.9 in /  34601.5 hPa ESE 5.0 mph /  8 km/h 10.5 mph /  16.9 km/h 88 % 0.0 in /  0 mm
03:49 2.1 °F /  -16.6 °C 0.3 °F /  -17.6 °C 1020.9 in /  34567.7 hPa SE 5.5 mph /  8.9 km/h 9.7 mph /  15.6 km/h 88 % 0.0 in /  0 mm
04:00 2.1 °F /  -16.6 °C 0.3 °F /  -17.6 °C 1020.9 in /  34567.7 hPa SE 6.9 mph /  11.1 km/h 10.5 mph /  16.9 km/h 88 % 0.0 in /  0 mm
04:05 2.1 °F /  -16.6 °C 0.3 °F /  -17.6 °C 1020.9 in /  34567.7 hPa SE 6.6 mph /  10.6 km/h 9.7 mph /  15.6 km/h 88 % 0.0 in /  0 mm
04:18 2.1 °F /  -16.6 °C 0.3 °F /  -17.6 °C 1020.9 in /  34567.7 hPa ESE 6.1 mph /  9.8 km/h 10.1 mph /  16.3 km/h 88 % 0.0 in /  0 mm
04:34 2.1 °F /  -16.6 °C 0.3 °F /  -17.6 °C 1020.9 in /  34567.7 hPa SE 4.2 mph /  6.8 km/h 9.7 mph /  15.6 km/h 88 % 0.0 in /  0 mm
04:42 2.1 °F /  -16.6 °C 0.3 °F /  -17.6 °C 1020.9 in /  34567.7 hPa ESE 6.0 mph /  9.7 km/h 10.1 mph /  16.3 km/h 88 % 0.0 in /  0 mm
04:49 2.1 °F /  -16.6 °C 0.3 °F /  -17.6 °C 1020.9 in /  34567.7 hPa ESE 5.0 mph /  8 km/h 7.9 mph /  12.7 km/h 88 % 0.0 in /  0 mm
04:55 2.1 °F /  -16.6 °C 0.3 °F /  -17.6 °C 1020.9 in /  34567.7 hPa East 4.5 mph /  7.2 km/h 7.9 mph /  12.7 km/h 88 % 0.0 in /  0 mm
05:11 2.1 °F /  -16.6 °C 0.3 °F /  -17.6 °C 1021.9 in /  34601.5 hPa ESE 4.3 mph /  6.9 km/h 8.7 mph /  14 km/h 88 % 0.0 in /  0 mm
05:23 2.1 °F /  -16.6 °C 0.3 °F /  -17.6 °C 1020.9 in /  34567.7 hPa ESE 6.0 mph /  9.7 km/h 10.5 mph /  16.9 km/h 88 % 0.0 in /  0 mm
05:29 2.1 °F /  -16.6 °C 0.3 °F /  -17.6 °C 1020.9 in /  34567.7 hPa East 6.4 mph /  10.3 km/h 10.5 mph /  16.9 km/h 88 % 0.0 in /  0 mm
05:33 2.1 °F /  -16.6 °C 0.3 °F /  -17.6 °C 1020.9 in /  34567.7 hPa East 6.6 mph /  10.6 km/h 10.1 mph /  16.3 km/h 88 % 0.0 in /  0 mm
05:39 2.1 °F /  -16.6 °C 0.3 °F /  -17.6 °C 1020.9 in /  34567.7 hPa East 6.9 mph /  11.1 km/h 9.7 mph /  15.6 km/h 88 % 0.0 in /  0 mm
05:44 2.1 °F /  -16.6 °C 0.3 °F /  -17.6 °C 1020.9 in /  34567.7 hPa East 7.1 mph /  11.4 km/h 10.5 mph /  16.9 km/h 88 % 0.0 in /  0 mm
06:13 2.0 °F /  -16.7 °C 0.2 °F /  -17.7 °C 1021.9 in /  34601.5 hPa ENE 6.4 mph /  10.3 km/h 13.0 mph /  20.9 km/h 88 % 0.0 in /  0 mm
06:18 2.0 °F /  -16.7 °C 0.2 °F /  -17.7 °C 1021.9 in /  34601.5 hPa ENE 6.6 mph /  10.6 km/h 13.0 mph /  20.9 km/h 88 % 0.0 in /  0 mm
06:26 2.0 °F /  -16.7 °C 0.1 °F /  -17.7 °C 1021.9 in /  34601.5 hPa ENE 6.0 mph /  9.7 km/h 12.6 mph /  20.3 km/h 87 % 0.0 in /  0 mm
06:32 1.9 °F /  -16.7 °C 0.1 °F /  -17.7 °C 1021.9 in /  34601.5 hPa ENE 7.6 mph /  12.2 km/h 12.6 mph /  20.3 km/h 88 % 0.0 in /  0 mm
06:38 1.9 °F /  -16.7 °C 0.1 °F /  -17.7 °C 1021.9 in /  34601.5 hPa ENE 7.9 mph /  12.7 km/h 15.8 mph /  25.4 km/h 88 % 0.0 in /  0 mm
06:44 1.9 °F /  -16.7 °C 0.1 °F /  -17.7 °C 1021.9 in /  34601.5 hPa ENE 6.8 mph /  10.9 km/h 10.5 mph /  16.9 km/h 88 % 0.0 in /  0 mm
07:02 1.8 °F /  -16.8 °C 0.0 °F /  -17.8 °C 1021.9 in /  34601.5 hPa East 5.5 mph /  8.9 km/h 9.3 mph /  15 km/h 88 % 0.0 in /  0 mm
07:11 1.8 °F /  -16.8 °C 0.0 °F /  -17.8 °C 1021.9 in /  34601.5 hPa East 5.6 mph /  9 km/h 9.7 mph /  15.6 km/h 88 % 0.0 in /  0 mm
07:17 1.8 °F /  -16.8 °C 0.0 °F /  -17.8 °C 1021.9 in /  34601.5 hPa East 6.9 mph /  11.1 km/h 16.9 mph /  27.2 km/h 88 % 0.0 in /  0 mm
07:22 1.7 °F /  -16.8 °C -0.1 °F /  -17.8 °C 1021.9 in /  34601.5 hPa East 7.7 mph /  12.4 km/h 16.9 mph /  27.2 km/h 88 % 0.0 in /  0 mm
07:31 1.7 °F /  -16.8 °C -0.1 °F /  -17.8 °C 1021.9 in /  34601.5 hPa East 8.0 mph /  12.9 km/h 12.2 mph /  19.6 km/h 88 % 0.0 in /  0 mm
07:48 1.6 °F /  -16.9 °C -0.2 °F /  -17.9 °C 1021.9 in /  34601.5 hPa ENE 9.3 mph /  15 km/h 19.8 mph /  31.9 km/h 88 % 0.0 in /  0 mm
07:57 1.5 °F /  -16.9 °C -0.3 °F /  -17.9 °C 1022.9 in /  34635.4 hPa ENE 9.8 mph /  15.8 km/h 20.9 mph /  33.6 km/h 88 % 0.0 in /  0 mm
08:06 1.5 °F /  -16.9 °C -0.3 °F /  -17.9 °C 1022.9 in /  34635.4 hPa ENE 7.9 mph /  12.7 km/h 11.6 mph /  18.7 km/h 88 % 0.0 in /  0 mm
08:11 1.5 °F /  -16.9 °C -0.3 °F /  -17.9 °C 1022.9 in /  34635.4 hPa ENE 6.9 mph /  11.1 km/h 10.5 mph /  16.9 km/h 88 % 0.0 in /  0 mm
08:24 1.5 °F /  -16.9 °C -0.1 °F /  -17.8 °C 1021.9 in /  34601.5 hPa ESE 7.7 mph /  12.4 km/h 20.1 mph /  32.3 km/h 89 % 0.0 in /  0 mm
08:32 1.4 °F /  -17 °C -0.2 °F /  -17.9 °C 1022.9 in /  34635.4 hPa ESE 8.0 mph /  12.9 km/h 14.0 mph /  22.5 km/h 89 % 0.0 in /  0 mm
08:44 1.4 °F /  -17 °C -0.2 °F /  -17.9 °C 1023.9 in /  34669.3 hPa ESE 6.6 mph /  10.6 km/h 11.9 mph /  19.2 km/h 89 % 0.0 in /  0 mm
08:52 1.3 °F /  -17.1 °C -0.3 °F /  -17.9 °C 1023.9 in /  34669.3 hPa ESE 6.0 mph /  9.7 km/h 11.9 mph /  19.2 km/h 89 % 0.0 in /  0 mm
08:58 1.3 °F /  -17.1 °C -0.3 °F /  -17.9 °C 1022.9 in /  34635.4 hPa ESE 7.9 mph /  12.7 km/h 16.6 mph /  26.7 km/h 89 % 0.0 in /  0 mm
09:04 1.2 °F /  -17.1 °C -0.4 °F /  -18 °C 1022.9 in /  34635.4 hPa ESE 8.4 mph /  13.5 km/h 14.0 mph /  22.5 km/h 89 % 0.0 in /  0 mm
09:25 1.1 °F /  -17.2 °C -0.5 °F /  -18.1 °C 1022.9 in /  34635.4 hPa ESE 6.3 mph /  10.1 km/h 13.0 mph /  20.9 km/h 89 % 0.0 in /  0 mm
09:30 1.1 °F /  -17.2 °C -0.5 °F /  -18.1 °C 1021.9 in /  34601.5 hPa ESE 5.3 mph /  8.5 km/h 10.5 mph /  16.9 km/h 89 % 0.0 in /  0 mm
09:37 1.1 °F /  -17.2 °C -0.5 °F /  -18.1 °C 1021.9 in /  34601.5 hPa ESE 5.5 mph /  8.9 km/h 11.6 mph /  18.7 km/h 89 % 0.0 in /  0 mm
10:21 0.9 °F /  -17.3 °C -0.6 °F /  -18.1 °C 1022.9 in /  34635.4 hPa East 6.8 mph /  10.9 km/h 11.9 mph /  19.2 km/h 90 % 0.3 in /  7.62 mm
10:34 1.0 °F /  -17.2 °C -0.6 °F /  -18.1 °C 1023.9 in /  34669.3 hPa East 7.1 mph /  11.4 km/h 13.7 mph /  22 km/h 89 % 0.3 in /  7.62 mm
10:43 1.0 °F /  -17.2 °C -0.6 °F /  -18.1 °C 1023.9 in /  34669.3 hPa East 8.8 mph /  14.2 km/h 17.7 mph /  28.5 km/h 89 % 0.3 in /  7.62 mm
10:50 1.1 °F /  -17.2 °C -0.5 °F /  -18.1 °C 1023.9 in /  34669.3 hPa ENE 6.6 mph /  10.6 km/h 12.6 mph /  20.3 km/h 89 % 0.3 in /  7.62 mm
11:07 1.1 °F /  -17.2 °C -0.5 °F /  -18.1 °C 1023.9 in /  34669.3 hPa ENE 8.0 mph /  12.9 km/h 11.6 mph /  18.7 km/h 89 % 0.0 in /  0 mm
11:17 1.2 °F /  -17.1 °C -0.4 °F /  -18 °C 1023.9 in /  34669.3 hPa ENE 6.6 mph /  10.6 km/h 12.6 mph /  20.3 km/h 89 % 0.0 in /  0 mm
11:40 1.3 °F /  -17.1 °C -0.3 °F /  -17.9 °C 1023.9 in /  34669.3 hPa East 6.8 mph /  10.9 km/h 11.6 mph /  18.7 km/h 89 % 0.0 in /  0 mm
12:07 1.2 °F /  -17.1 °C -0.6 °F /  -18.1 °C 1022.9 in /  34635.4 hPa ENE 7.1 mph /  11.4 km/h 11.9 mph /  19.2 km/h 88 % 0.0 in /  0 mm
12:14 1.1 °F /  -17.2 °C -0.7 °F /  -18.2 °C 1022.9 in /  34635.4 hPa ENE 6.9 mph /  11.1 km/h 11.1 mph /  17.9 km/h 88 % 0.0 in /  0 mm
12:19 1.1 °F /  -17.2 °C -0.7 °F /  -18.2 °C 1022.9 in /  34635.4 hPa ENE 7.4 mph /  11.9 km/h 12.2 mph /  19.6 km/h 88 % 0.0 in /  0 mm
12:26 1.1 °F /  -17.2 °C -0.7 °F /  -18.2 °C 1022.9 in /  34635.4 hPa ENE 6.4 mph /  10.3 km/h 10.5 mph /  16.9 km/h 88 % 0.0 in /  0 mm
12:41 1.2 °F /  -17.1 °C -0.7 °F /  -18.2 °C 1022.9 in /  34635.4 hPa ENE 7.1 mph /  11.4 km/h 12.2 mph /  19.6 km/h 87 % 0.0 in /  0 mm
12:46 1.2 °F /  -17.1 °C -0.7 °F /  -18.2 °C 1022.9 in /  34635.4 hPa ENE 7.1 mph /  11.4 km/h 12.2 mph /  19.6 km/h 87 % 0.0 in /  0 mm
12:54 1.2 °F /  -17.1 °C -0.7 °F /  -18.2 °C 1022.9 in /  34635.4 hPa ENE 6.0 mph /  9.7 km/h 11.9 mph /  19.2 km/h 87 % 0.0 in /  0 mm
13:06 1.1 °F /  -17.2 °C -0.8 °F /  -18.2 °C 1021.9 in /  34601.5 hPa ENE 8.2 mph /  13.2 km/h 14.0 mph /  22.5 km/h 87 % 0.0 in /  0 mm
13:14 1.1 °F /  -17.2 °C -0.8 °F /  -18.2 °C 1022.9 in /  34635.4 hPa ENE 7.2 mph /  11.6 km/h 12.6 mph /  20.3 km/h 87 % 0.0 in /  0 mm
13:22 1.1 °F /  -17.2 °C -0.8 °F /  -18.2 °C 1022.9 in /  34635.4 hPa East 7.2 mph /  11.6 km/h 12.6 mph /  20.3 km/h 87 % 0.0 in /  0 mm
13:34 1.2 °F /  -17.1 °C -0.9 °F /  -18.3 °C 1022.9 in /  34635.4 hPa ENE 7.1 mph /  11.4 km/h 12.2 mph /  19.6 km/h 86 % 0.0 in /  0 mm
13:54 1.2 °F /  -17.1 °C -0.9 °F /  -18.3 °C 1022.9 in /  34635.4 hPa ENE 8.2 mph /  13.2 km/h 13.0 mph /  20.9 km/h 86 % 0.0 in /  0 mm
13:59 1.1 °F /  -17.2 °C -1.2 °F /  -18.4 °C 1022.9 in /  34635.4 hPa ENE 6.9 mph /  11.1 km/h 13.0 mph /  20.9 km/h 85 % 0.0 in /  0 mm
14:07 1.1 °F /  -17.2 °C -1.2 °F /  -18.4 °C 1022.9 in /  34635.4 hPa NE 6.9 mph /  11.1 km/h 14.8 mph /  23.8 km/h 85 % 0.0 in /  0 mm
14:12 1.0 °F /  -17.2 °C -1.2 °F /  -18.4 °C 1022.9 in /  34635.4 hPa ENE 7.4 mph /  11.9 km/h 14.0 mph /  22.5 km/h 85 % 0.0 in /  0 mm
14:26 1.0 °F /  -17.2 °C -1.2 °F /  -18.4 °C 1022.9 in /  34635.4 hPa ENE 8.2 mph /  13.2 km/h 16.9 mph /  27.2 km/h 85 % 0.0 in /  0 mm
14:32 0.9 °F /  -17.3 °C -1.3 °F /  -18.5 °C 1021.9 in /  34601.5 hPa ENE 6.8 mph /  10.9 km/h 16.9 mph /  27.2 km/h 85 % 0.0 in /  0 mm
14:39 0.9 °F /  -17.3 °C -1.3 °F /  -18.5 °C 1021.9 in /  34601.5 hPa ENE 7.1 mph /  11.4 km/h 13.0 mph /  20.9 km/h 85 % 0.0 in /  0 mm
14:44 0.9 °F /  -17.3 °C -1.3 °F /  -18.5 °C 1022.9 in /  34635.4 hPa ENE 7.1 mph /  11.4 km/h 13.0 mph /  20.9 km/h 85 % 0.0 in /  0 mm
14:52 0.8 °F /  -17.3 °C -1.4 °F /  -18.6 °C 1022.9 in /  34635.4 hPa ENE 7.2 mph /  11.6 km/h 12.2 mph /  19.6 km/h 85 % 0.0 in /  0 mm
14:57 0.8 °F /  -17.3 °C -1.4 °F /  -18.6 °C 1022.9 in /  34635.4 hPa ENE 6.9 mph /  11.1 km/h 12.2 mph /  19.6 km/h 85 % 0.0 in /  0 mm
15:06 0.8 °F /  -17.3 °C -1.4 °F /  -18.6 °C 1022.9 in /  34635.4 hPa ENE 6.4 mph /  10.3 km/h 10.8 mph /  17.4 km/h 85 % 0.0 in /  0 mm
15:14 0.8 °F /  -17.3 °C -1.4 °F /  -18.6 °C 1022.9 in /  34635.4 hPa ENE 7.7 mph /  12.4 km/h 11.9 mph /  19.2 km/h 85 % 0.0 in /  0 mm
15:19 0.8 °F /  -17.3 °C -1.6 °F /  -18.7 °C 1022.9 in /  34635.4 hPa ENE 6.8 mph /  10.9 km/h 11.6 mph /  18.7 km/h 84 % 0.0 in /  0 mm
15:26 0.8 °F /  -17.3 °C -1.6 °F /  -18.7 °C 1022.9 in /  34635.4 hPa ENE 5.6 mph /  9 km/h 9.7 mph /  15.6 km/h 84 % 0.0 in /  0 mm
15:35 0.8 °F /  -17.3 °C -1.6 °F /  -18.7 °C 1022.9 in /  34635.4 hPa ENE 6.6 mph /  10.6 km/h 13.0 mph /  20.9 km/h 84 % 0.0 in /  0 mm
15:46 0.8 °F /  -17.3 °C -1.6 °F /  -18.7 °C 1022.9 in /  34635.4 hPa ENE 7.6 mph /  12.2 km/h 13.7 mph /  22 km/h 84 % 0.0 in /  0 mm
15:58 0.7 °F /  -17.4 °C -1.7 °F /  -18.7 °C 1022.9 in /  34635.4 hPa ENE 6.9 mph /  11.1 km/h 12.2 mph /  19.6 km/h 84 % 0.0 in /  0 mm
16:09 0.7 °F /  -17.4 °C -1.7 °F /  -18.7 °C 1022.9 in /  34635.4 hPa NE 8.4 mph /  13.5 km/h 17.2 mph /  27.7 km/h 84 % 0.0 in /  0 mm
16:20 0.7 °F /  -17.4 °C -1.8 °F /  -18.8 °C 1022.9 in /  34635.4 hPa NE 7.4 mph /  11.9 km/h 12.2 mph /  19.6 km/h 83 % 0.0 in /  0 mm
16:30 0.7 °F /  -17.4 °C -1.8 °F /  -18.8 °C 1023.9 in /  34669.3 hPa ENE 6.8 mph /  10.9 km/h 12.2 mph /  19.6 km/h 83 % 0.0 in /  0 mm
16:36 0.7 °F /  -17.4 °C -1.8 °F /  -18.8 °C 1023.9 in /  34669.3 hPa ENE 7.4 mph /  11.9 km/h 12.6 mph /  20.3 km/h 83 % 0.0 in /  0 mm
16:41 0.6 °F /  -17.4 °C -1.9 °F /  -18.8 °C 1023.9 in /  34669.3 hPa ENE 7.4 mph /  11.9 km/h 13.7 mph /  22 km/h 83 % 0.0 in /  0 mm
16:47 0.6 °F /  -17.4 °C -1.9 °F /  -18.8 °C 1023.9 in /  34669.3 hPa ENE 7.7 mph /  12.4 km/h 13.7 mph /  22 km/h 83 % 0.0 in /  0 mm
17:05 0.6 °F /  -17.4 °C -2.1 °F /  -18.9 °C 1023.9 in /  34669.3 hPa ENE 5.3 mph /  8.5 km/h 10.5 mph /  16.9 km/h 82 % 0.0 in /  0 mm
17:22 0.6 °F /  -17.4 °C -2.1 °F /  -18.9 °C 1023.9 in /  34669.3 hPa ENE 5.6 mph /  9 km/h 9.7 mph /  15.6 km/h 82 % 0.0 in /  0 mm
17:32 0.6 °F /  -17.4 °C -2.1 °F /  -18.9 °C 1023.9 in /  34669.3 hPa East 5.5 mph /  8.9 km/h 8.7 mph /  14 km/h 82 % 0.0 in /  0 mm
18:01 0.5 °F /  -17.5 °C -2.4 °F /  -19.1 °C 1023.9 in /  34669.3 hPa East 5.1 mph /  8.2 km/h 9.7 mph /  15.6 km/h 81 % 0.0 in /  0 mm
18:06 0.5 °F /  -17.5 °C -2.4 °F /  -19.1 °C 1023.9 in /  34669.3 hPa East 4.8 mph /  7.7 km/h 9.7 mph /  15.6 km/h 81 % 0.0 in /  0 mm
18:23 0.4 °F /  -17.6 °C -2.5 °F /  -19.2 °C 1024.9 in /  34703.1 hPa East 3.4 mph /  5.5 km/h 6.1 mph /  9.8 km/h 81 % 0.0 in /  0 mm
18:29 0.4 °F /  -17.6 °C -2.5 °F /  -19.2 °C 1024.9 in /  34703.1 hPa East 3.4 mph /  5.5 km/h 6.1 mph /  9.8 km/h 81 % 0.0 in /  0 mm
18:41 0.3 °F /  -17.6 °C -2.7 °F /  -19.3 °C 1024.9 in /  34703.1 hPa East 5.0 mph /  8 km/h 9.3 mph /  15 km/h 80 % 0.0 in /  0 mm
18:47 0.3 °F /  -17.6 °C -2.7 °F /  -19.3 °C 1024.9 in /  34703.1 hPa East 4.5 mph /  7.2 km/h 7.6 mph /  12.2 km/h 80 % 0.0 in /  0 mm
18:55 0.3 °F /  -17.6 °C -2.7 °F /  -19.3 °C 1024.9 in /  34703.1 hPa East 3.9 mph /  6.3 km/h 5.5 mph /  8.9 km/h 80 % 0.0 in /  0 mm
19:21 0.2 °F /  -17.7 °C -2.8 °F /  -19.3 °C 1024.9 in /  34703.1 hPa ESE 4.0 mph /  6.4 km/h 6.9 mph /  11.1 km/h 80 % 0.0 in /  0 mm
19:27 0.2 °F /  -17.7 °C -2.8 °F /  -19.3 °C 1024.9 in /  34703.1 hPa ESE 3.5 mph /  5.6 km/h 6.1 mph /  9.8 km/h 80 % 0.0 in /  0 mm
19:32 0.2 °F /  -17.7 °C -2.8 °F /  -19.3 °C 1024.9 in /  34703.1 hPa ESE 3.2 mph /  5.1 km/h 5.8 mph /  9.3 km/h 80 % 0.0 in /  0 mm
19:52 0.1 °F /  -17.7 °C -2.9 °F /  -19.4 °C 1024.9 in /  34703.1 hPa East 4.2 mph /  6.8 km/h 9.3 mph /  15 km/h 80 % 0.0 in /  0 mm
19:58 0.1 °F /  -17.7 °C -2.9 °F /  -19.4 °C 1024.9 in /  34703.1 hPa East 3.9 mph /  6.3 km/h 10.5 mph /  16.9 km/h 80 % 0.0 in /  0 mm
20:09 0.0 °F /  -17.8 °C -3.1 °F /  -19.5 °C 1024.9 in /  34703.1 hPa ESE 4.5 mph /  7.2 km/h 6.9 mph /  11.1 km/h 80 % 0.0 in /  0 mm
20:14 0.0 °F /  -17.8 °C -3.1 °F /  -19.5 °C 1023.9 in /  34669.3 hPa ESE 4.2 mph /  6.8 km/h 6.9 mph /  11.1 km/h 80 % 0.0 in /  0 mm
20:18 0.0 °F /  -17.8 °C -3.1 °F /  -19.5 °C 1023.9 in /  34669.3 hPa ESE 4.5 mph /  7.2 km/h 6.9 mph /  11.1 km/h 80 % 0.0 in /  0 mm
20:35 -0.2 °F /  -17.9 °C -3.1 °F /  -19.5 °C 1024.9 in /  34703.1 hPa ESE 1.4 mph /  2.3 km/h 4.7 mph /  7.6 km/h 81 % 0.3 in /  7.62 mm
20:43 -0.3 °F /  -17.9 °C -3.2 °F /  -19.6 °C 1023.9 in /  34669.3 hPa ESE 2.6 mph /  4.2 km/h 5.0 mph /  8 km/h 81 % 0.3 in /  7.62 mm
20:48 -0.3 °F /  -17.9 °C -3.2 °F /  -19.6 °C 1023.9 in /  34669.3 hPa ESE 2.3 mph /  3.7 km/h 4.3 mph /  6.9 km/h 81 % 0.3 in /  7.62 mm
21:01 -0.4 °F /  -18 °C -3.3 °F /  -19.6 °C 1023.9 in /  34669.3 hPa SE 0.8 mph /  1.3 km/h 4.3 mph /  6.9 km/h 81 % 0.3 in /  7.62 mm
21:10 -0.5 °F /  -18.1 °C -3.3 °F /  -19.6 °C 1023.9 in /  34669.3 hPa ENE 0.3 mph /  0.5 km/h 3.5 mph /  5.6 km/h 81 % 0.3 in /  7.62 mm
21:19 -0.5 °F /  -18.1 °C -3.3 °F /  -19.6 °C 1024.9 in /  34703.1 hPa East 0.8 mph /  1.3 km/h 3.5 mph /  5.6 km/h 81 % 0.3 in /  7.62 mm
21:27 -0.5 °F /  -18.1 °C -3.2 °F /  -19.6 °C 1023.9 in /  34669.3 hPa East 1.0 mph /  1.6 km/h 4.3 mph /  6.9 km/h 82 % 0.0 in /  0 mm
21:38 -0.5 °F /  -18.1 °C -3.2 °F /  -19.6 °C 1023.9 in /  34669.3 hPa ESE 1.1 mph /  1.8 km/h 5.5 mph /  8.9 km/h 82 % 0.0 in /  0 mm
21:48 -0.5 °F /  -18.1 °C -3.2 °F /  -19.6 °C 1023.9 in /  34669.3 hPa ESE 0.3 mph /  0.5 km/h 3.2 mph /  5.1 km/h 82 % 0.0 in /  0 mm
21:54 -0.5 °F /  -18.1 °C -3.2 °F /  -19.6 °C 1023.9 in /  34669.3 hPa ESE 0.2 mph /  0.3 km/h 1.8 mph /  2.9 km/h 82 % 0.0 in /  0 mm
22:00 -0.5 °F /  -18.1 °C -3.2 °F /  -19.6 °C 1023.9 in /  34669.3 hPa SE 1.0 mph /  1.6 km/h 5.0 mph /  8 km/h 82 % 0.0 in /  0 mm
22:06 -0.5 °F /  -18.1 °C -3.1 °F /  -19.5 °C 1023.9 in /  34669.3 hPa SE 2.3 mph /  3.7 km/h 5.0 mph /  8 km/h 83 % 0.0 in /  0 mm
22:18 -0.5 °F /  -18.1 °C -3.1 °F /  -19.5 °C 1024.9 in /  34703.1 hPa SE 1.6 mph /  2.6 km/h 5.0 mph /  8 km/h 83 % 0.0 in /  0 mm
22:25 -0.5 °F /  -18.1 °C -3.1 °F /  -19.5 °C 1024.9 in /  34703.1 hPa SE 2.1 mph /  3.4 km/h 4.3 mph /  6.9 km/h 83 % 0.0 in /  0 mm
22:34 -0.5 °F /  -18.1 °C -3.1 °F /  -19.5 °C 1023.9 in /  34669.3 hPa ESE 3.1 mph /  5 km/h 5.8 mph /  9.3 km/h 83 % 0.0 in /  0 mm
22:43 -0.5 °F /  -18.1 °C -2.9 °F /  -19.4 °C 1024.9 in /  34703.1 hPa ESE 2.4 mph /  3.9 km/h 4.7 mph /  7.6 km/h 84 % 0.0 in /  0 mm
22:55 -0.5 °F /  -18.1 °C -2.9 °F /  -19.4 °C 1024.9 in /  34703.1 hPa East 1.0 mph /  1.6 km/h 4.3 mph /  6.9 km/h 84 % 0.0 in /  0 mm
23:12 -0.5 °F /  -18.1 °C -2.9 °F /  -19.4 °C 1024.9 in /  34703.1 hPa East 2.1 mph /  3.4 km/h 5.5 mph /  8.9 km/h 84 % 0.0 in /  0 mm
23:19 -0.5 °F /  -18.1 °C -2.9 °F /  -19.4 °C 1024.9 in /  34703.1 hPa East 2.6 mph /  4.2 km/h 4.7 mph /  7.6 km/h 84 % 0.0 in /  0 mm
23:24 -0.6 °F /  -18.1 °C -2.9 °F /  -19.4 °C 1024.9 in /  34703.1 hPa East 2.6 mph /  4.2 km/h 4.3 mph /  6.9 km/h 84 % 0.0 in /  0 mm
23:36 -0.6 °F /  -18.1 °C -2.9 °F /  -19.4 °C 1024.9 in /  34703.1 hPa ESE 1.8 mph /  2.9 km/h 4.3 mph /  6.9 km/h 84 % 0.0 in /  0 mm
23:54 -0.5 °F /  -18.1 °C -2.7 °F /  -19.3 °C 1024.9 in /  34703.1 hPa ESE 3.1 mph /  5 km/h 5.8 mph /  9.3 km/h 85 % 0.0 in /  0 mm
Vremenska postaja Senovo
Podatki zbrani iz Weather Underground - 2.25 mb

Script developed by  Jim McMurry - jmcmurry@mwt.net Adapted for the template by  Wim van der Kuil - Leuven-Template.eu

Vremenski podatki so objavljeni na:

European Weather Network

WeatherCloud

Weather Underground

AWEKAS

HAMweather, WeatherForYou, PWS Weather

MapView

Geostik

Slovenia weather network

Oprema, ki se uporablja:

Vremenski program
Cumulus

Vremenski server
Asus

Cumulus

Asus